Dades meteomassalio
Diari Summary for Gener 16, 2017 Units:  Metric    English   Both
« Previous Day
Next Day »
Diari Semanal Mensual Anual Personalitzat
  Maxima: Minima: Mijana:
Temperatura: -17.8 °C -13.9 °C -12.5 °C
Rosada: -17.8 °C -15.7 °C -15.1 °C
Humitat: Humidity % 60 % 73 %
Velocitat del vent: 0 km/h 29.8 km/h 72.3 km/h
Racha vent: 0 km/h - -
Vent:- - NW
Pressio: 0 hPa 34418.7 hPa -
Pluja: 0 mm    
Historical Graphs
 
 
Tabular Data for Gener 16, 2017
Time Temperature Dew Point Pressure Wind Wind Speed Wind Gust Humidity Rainfall Rate (Hourly) solar Conditions
-17.8 °C -17.8 °C 0 hPa Calm     Humidity % 0 mm SolarRadiationWatts/m^2 W/m2 Conditions
00:01 -13.9 °C -15.6 °C 34693 hPa NW 53.6 km/h 53.6 km/h 81 % 0 mm 0.0 W/m2 CLR
00:06 -13.9 °C -15.7 °C 34693 hPa NW 41.4 km/h 41.4 km/h 80 % 0 mm 0.0 W/m2 CLR
00:11 -13.9 °C -15.6 °C 34693 hPa NW 68.6 km/h 68.6 km/h 81 % 0 mm 0.0 W/m2 CLR
00:16 -13.9 °C -15.6 °C 34682.8 hPa NW 56.6 km/h 56.6 km/h 81 % 0 mm 0.0 W/m2 CLR
00:21 -13.9 °C -15.6 °C 34693 hPa NW 53.6 km/h 53.6 km/h 81 % 0 mm 0.0 W/m2 CLR
00:26 -13.9 °C -15.7 °C 34682.8 hPa NW 46.7 km/h 46.7 km/h 81 % 0 mm 0.0 W/m2 CLR
00:31 -13.9 °C -15.6 °C 34682.8 hPa NW 71.5 km/h 71.5 km/h 81 % 0 mm 0.0 W/m2 CLR
00:36 -13.9 °C -15.6 °C 34669.3 hPa NW 53.6 km/h 53.6 km/h 81 % 0 mm 0.0 W/m2 CLR
00:41 -13.8 °C -15.6 °C 34669.3 hPa NW 68.6 km/h 68.6 km/h 81 % 0 mm 0.0 W/m2 CLR
00:46 -13.8 °C -15.5 °C 34669.3 hPa NW 65.5 km/h 65.5 km/h 81 % 0 mm 0.0 W/m2 CLR
00:51 -13.8 °C -15.5 °C 34669.3 hPa NW 53.6 km/h 53.6 km/h 81 % 0 mm 0.0 W/m2 CLR
00:57 -13.8 °C -15.5 °C 34669.3 hPa NW 47.6 km/h 49.4 km/h 81 % 0 mm 0.0 W/m2 CLR
01:02 -13.8 °C -15.4 °C 34669.3 hPa NW 53.6 km/h 53.6 km/h 81 % 0 mm 0.0 W/m2 CLR
01:07 -13.8 °C -15.5 °C 34669.3 hPa NW 54.4 km/h 54.4 km/h 81 % 0 mm 0.0 W/m2 CLR
01:12 -13.8 °C -15.5 °C 34659.1 hPa NW 62.6 km/h 62.6 km/h 81 % 0 mm 0.0 W/m2 CLR
01:17 -13.8 °C -15.6 °C 34659.1 hPa NW 62.6 km/h 62.6 km/h 80 % 0 mm 0.0 W/m2 CLR
01:22 -13.8 °C -15.6 °C 34659.1 hPa NW 56.6 km/h 56.6 km/h 80 % 0 mm 0.0 W/m2 CLR
01:27 -13.7 °C -15.4 °C 34659.1 hPa WNW 77.4 km/h 77.4 km/h 81 % 0 mm 0.0 W/m2 CLR
01:32 -13.7 °C -15.4 °C 34659.1 hPa NW 68.6 km/h 68.6 km/h 81 % 0 mm 0.0 W/m2 CLR
01:37 -13.7 °C -15.4 °C 34659.1 hPa NW 59.5 km/h 59.5 km/h 81 % 0 mm 0.0 W/m2 CLR
01:42 -13.8 °C -15.4 °C 34659.1 hPa NW 47.6 km/h 47.6 km/h 81 % 0 mm 0.0 W/m2 CLR
01:47 -13.8 °C -15.4 °C 34659.1 hPa NW 56.6 km/h 56.6 km/h 81 % 0 mm 0.0 W/m2 CLR
01:52 -13.7 °C -15.4 °C 34645.6 hPa WNW 59.5 km/h 59.5 km/h 81 % 0 mm 0.0 W/m2 CLR
01:57 -13.7 °C -15.4 °C 34645.6 hPa NW 53.6 km/h 53.6 km/h 81 % 0 mm 0.0 W/m2 CLR
02:02 -13.7 °C -15.4 °C 34645.6 hPa NW 41.7 km/h 41.7 km/h 81 % 0 mm 0.0 W/m2 CLR
02:07 -13.7 °C -15.4 °C 34645.6 hPa WNW 62.6 km/h 62.6 km/h 81 % 0 mm 0.0 W/m2 CLR
02:12 -13.7 °C -15.5 °C 34645.6 hPa WNW 29.8 km/h 29.8 km/h 80 % 0 mm 0.0 W/m2 CLR
02:17 -13.8 °C -15.4 °C 34645.6 hPa NW 41.7 km/h 41.7 km/h 81 % 0 mm 0.0 W/m2 CLR
02:22 -13.7 °C -15.5 °C 34645.6 hPa NW 59.5 km/h 59.5 km/h 80 % 0 mm 0.0 W/m2 CLR
02:27 -13.7 °C -15.5 °C 34635.4 hPa NW 50.7 km/h 50.7 km/h 80 % 0 mm 0.0 W/m2 CLR
02:32 -13.7 °C -15.5 °C 34635.4 hPa NW 50.7 km/h 50.7 km/h 80 % 0 mm 0.0 W/m2 CLR
02:37 -13.7 °C -15.4 °C 34625.2 hPa NW 65.5 km/h 65.5 km/h 80 % 0 mm 0.0 W/m2 CLR
02:42 -13.7 °C -15.6 °C 34625.2 hPa NW 56.6 km/h 56.6 km/h 79 % 0 mm 0.0 W/m2 CLR
02:47 -13.7 °C -15.6 °C 34625.2 hPa NW 68.6 km/h 68.6 km/h 79 % 0 mm 0.0 W/m2 CLR
02:52 -13.6 °C -15.5 °C 34625.2 hPa NW 68.6 km/h 68.6 km/h 79 % 0 mm 0.0 W/m2 CLR
02:57 -13.6 °C -15.5 °C 34625.2 hPa NW 71.5 km/h 71.5 km/h 79 % 0 mm 0.0 W/m2 CLR
03:02 -13.6 °C -15.4 °C 34625.2 hPa NW 59.5 km/h 59.5 km/h 79 % 0 mm 0.0 W/m2 CLR
03:07 -13.6 °C -15.5 °C 34625.2 hPa NW 53.6 km/h 53.6 km/h 79 % 0 mm 0.0 W/m2 CLR
03:12 -13.6 °C -15.4 °C 34625.2 hPa NW 53.6 km/h 53.6 km/h 79 % 0 mm 0.0 W/m2 CLR
03:17 -13.6 °C -15.4 °C 34625.2 hPa NW 57 km/h 57 km/h 79 % 0 mm 0.0 W/m2 CLR
03:22 -13.5 °C -15.4 °C 34611.7 hPa NW 59.5 km/h 59.5 km/h 79 % 0 mm 0.0 W/m2 CLR
03:27 -13.4 °C -15.4 °C 34611.7 hPa WNW 59.5 km/h 59.5 km/h 78 % 0 mm 0.0 W/m2 CLR
03:32 -13.4 °C -15.4 °C 34611.7 hPa NW 62.6 km/h 62.6 km/h 78 % 0 mm 0.0 W/m2 CLR
03:37 -13.4 °C -15.4 °C 34611.7 hPa NW 50.7 km/h 50.7 km/h 78 % 0 mm 0.0 W/m2 CLR
03:42 -13.4 °C -15.4 °C 34611.7 hPa NW 59.5 km/h 59.5 km/h 78 % 0 mm 0.0 W/m2 CLR
03:47 -13.4 °C -15.3 °C 34611.7 hPa NW 54.4 km/h 54.4 km/h 79 % 0 mm 0.0 W/m2 CLR
03:52 -13.4 °C -15.4 °C 34611.7 hPa NW 50.7 km/h 50.7 km/h 78 % 0 mm 0.0 W/m2 CLR
03:57 -13.5 °C -15.4 °C 34611.7 hPa NW 53.6 km/h 53.6 km/h 79 % 0 mm 0.0 W/m2 CLR
04:02 -13.4 °C -15.3 °C 34601.5 hPa NW 49.2 km/h 49.2 km/h 79 % 0 mm 0.0 W/m2 CLR
04:07 -13.4 °C -15.4 °C 34601.5 hPa NW 56.6 km/h 56.6 km/h 78 % 0 mm 0.0 W/m2 CLR
04:12 -13.4 °C -15.3 °C 34601.5 hPa NW 50.7 km/h 50.7 km/h 79 % 0 mm 0.0 W/m2 CLR
04:17 -13.4 °C -15.3 °C 34601.5 hPa NW 62.6 km/h 62.6 km/h 79 % 0 mm 0.0 W/m2 CLR
04:22 -13.5 °C -15.4 °C 34601.5 hPa WNW 59.5 km/h 59.5 km/h 79 % 0 mm 0.0 W/m2 CLR
04:27 -13.4 °C -15.3 °C 34601.5 hPa WNW 59.5 km/h 59.5 km/h 79 % 0 mm 0.0 W/m2 CLR
04:32 -13.4 °C -15.3 °C 34601.5 hPa NW 74.5 km/h 74.5 km/h 79 % 0 mm 0.0 W/m2 CLR
04:37 -13.4 °C -15.3 °C 34591.4 hPa NW 44.7 km/h 44.7 km/h 79 % 0 mm 0.0 W/m2 CLR
04:42 -13.4 °C -15.3 °C 34591.4 hPa NW 50.7 km/h 50.7 km/h 79 % 0 mm 0.0 W/m2 CLR
04:47 -13.5 °C -15.4 °C 34591.4 hPa NW 59.5 km/h 59.5 km/h 79 % 0 mm 0.0 W/m2 CLR
04:52 -13.4 °C -15.3 °C 34591.4 hPa NW 71.5 km/h 71.5 km/h 79 % 0 mm 0.0 W/m2 CLR
04:57 -13.4 °C -15.3 °C 34591.4 hPa NW 56.6 km/h 56.6 km/h 79 % 0 mm 0.0 W/m2 CLR
05:02 -13.4 °C -15.3 °C 34591.4 hPa NW 71.5 km/h 71.5 km/h 79 % 0 mm 0.0 W/m2 CLR
05:07 -13.4 °C -15.2 °C 34577.8 hPa NW 50.7 km/h 50.7 km/h 80 % 0 mm 0.0 W/m2 CLR
05:12 -13.4 °C -15.2 °C 34591.4 hPa NW 50.7 km/h 50.7 km/h 80 % 0 mm 0.0 W/m2 CLR
05:17 -13.4 °C -15.2 °C 34591.4 hPa NW 68.6 km/h 68.6 km/h 80 % 0 mm 0.0 W/m2 CLR
05:22 -13.4 °C -15.2 °C 34577.8 hPa NW 80.5 km/h 80.5 km/h 80 % 0 mm 0.0 W/m2 CLR
05:27 -13.3 °C -15.2 °C 34577.8 hPa NW 59.5 km/h 59.5 km/h 79 % 0 mm 0.0 W/m2 CLR
05:32 -13.3 °C -15.2 °C 34577.8 hPa NW 62.6 km/h 62.6 km/h 79 % 0 mm 0.0 W/m2 CLR
05:37 -13.3 °C -15.2 °C 34577.8 hPa NW 62.1 km/h 62.1 km/h 79 % 0 mm 0.0 W/m2 CLR
05:42 -13.3 °C -15.2 °C 34577.8 hPa NW 68.6 km/h 68.6 km/h 79 % 0 mm 0.0 W/m2 CLR
05:47 -13.3 °C -15.2 °C 34567.7 hPa NW 59.5 km/h 59.5 km/h 79 % 0 mm 0.0 W/m2 CLR
05:52 -13.3 °C -15.3 °C 34567.7 hPa NW 68.6 km/h 68.6 km/h 78 % 0 mm 0.0 W/m2 CLR
05:57 -13.2 °C -15.2 °C 34567.7 hPa NW 89.3 km/h 89.3 km/h 78 % 0 mm 0.0 W/m2 CLR
06:02 -13.2 °C -15.3 °C 34567.7 hPa NW 59.5 km/h 59.5 km/h 77 % 0 mm 0.0 W/m2 CLR
06:07 -13.2 °C -15.3 °C 34554.1 hPa NW 62.6 km/h 62.6 km/h 77 % 0 mm 0.0 W/m2 CLR
06:12 -13.2 °C -15.3 °C 34554.1 hPa NW 65.5 km/h 65.5 km/h 77 % 0 mm 0.0 W/m2 CLR
06:17 -13.2 °C -15.3 °C 34567.7 hPa NW 83.4 km/h 83.4 km/h 77 % 0 mm 0.0 W/m2 CLR
06:22 -13.2 °C -15.3 °C 34554.1 hPa NW 71.5 km/h 71.5 km/h 77 % 0 mm 0.0 W/m2 CLR
06:27 -13.2 °C -15.3 °C 34554.1 hPa NW 83.4 km/h 83.4 km/h 77 % 0 mm 0.0 W/m2 CLR
06:32 -13.2 °C -15.2 °C 34554.1 hPa NNW 89.3 km/h 89.3 km/h 77 % 0 mm 0.0 W/m2 CLR
06:37 -13.1 °C -15.2 °C 34554.1 hPa NW 80.5 km/h 80.5 km/h 77 % 0 mm 0.0 W/m2 CLR
06:42 -13.1 °C -15.2 °C 34567.7 hPa NW 83.4 km/h 83.4 km/h 77 % 0 mm 0.0 W/m2 CLR
06:47 -13.1 °C -15.3 °C 34554.1 hPa NW 71.5 km/h 71.5 km/h 76 % 0 mm 0.0 W/m2 CLR
06:52 -13.1 °C -15.3 °C 34554.1 hPa NW 89.3 km/h 89.3 km/h 76 % 0 mm 0.0 W/m2 CLR
06:57 -13.1 °C -15.3 °C 34554.1 hPa NW 59.5 km/h 59.5 km/h 76 % 0 mm 0.0 W/m2 CLR
07:03 -13.1 °C -15.3 °C 34554.1 hPa NW 62.6 km/h 62.6 km/h 76 % 0 mm 0.0 W/m2 CLR
07:08 -13.1 °C -15.3 °C 34554.1 hPa NW 67.3 km/h 67.3 km/h 76 % 0 mm 0.0 W/m2 CLR
07:13 -13.1 °C -15.3 °C 34554.1 hPa NW 69.8 km/h 69.8 km/h 76 % 0 mm 0.0 W/m2 CLR
07:18 -13.1 °C -15.3 °C 34554.1 hPa NW 82.9 km/h 82.9 km/h 76 % 0 mm 0.0 W/m2 CLR
07:23 -13.1 °C -15.3 °C 34554.1 hPa NW 57 km/h 57 km/h 76 % 0 mm 0.0 W/m2 CLR
07:28 -13.1 °C -15.3 °C 34554.1 hPa NW 77.4 km/h 77.4 km/h 76 % 0 mm 0.0 W/m2 CLR
07:33 -13.1 °C -15.3 °C 34554.1 hPa NW 65.5 km/h 65.5 km/h 76 % 0 mm 0.0 W/m2 CLR
07:38 -13.1 °C -15.2 °C 34567.7 hPa NW 71.5 km/h 71.5 km/h 77 % 0 mm 0.0 W/m2 CLR
07:43 -13.1 °C -15.2 °C 34554.1 hPa NW 53.6 km/h 53.6 km/h 77 % 0 mm 0.0 W/m2 CLR
07:48 -13.1 °C -15.2 °C 34554.1 hPa NW 69.8 km/h 69.8 km/h 77 % 0 mm 0.0 W/m2 CLR
07:53 -13.1 °C -15.2 °C 34554.1 hPa NW 83.4 km/h 83.4 km/h 77 % 0 mm 0.0 W/m2 CLR
07:58 -13.1 °C -15.2 °C 34554.1 hPa NW 59.5 km/h 59.5 km/h 77 % 0 mm 0.0 W/m2 CLR
08:03 -13.1 °C -15.2 °C 34554.1 hPa NW 65.5 km/h 65.5 km/h 77 % 0 mm 0.0 W/m2 CLR
08:08 -13.1 °C -15.1 °C 34554.1 hPa NW 68.6 km/h 68.6 km/h 78 % 0 mm 0.0 W/m2 CLR
08:13 -13.1 °C -15.1 °C 34554.1 hPa NW 65.5 km/h 65.5 km/h 78 % 0 mm 0.0 W/m2 CLR
08:18 -13.1 °C -15.1 °C 34554.1 hPa NW 74.5 km/h 74.5 km/h 78 % 0 mm 0.0 W/m2 CLR
08:23 -13.1 °C -15.1 °C 34554.1 hPa NW 71.5 km/h 71.5 km/h 78 % 0 mm 0.0 W/m2 OVC
08:28 -13.1 °C -15.1 °C 34544 hPa NW 77.4 km/h 77.4 km/h 78 % 0 mm 5.0 W/m2 BKN
08:33 -13.1 °C -15.1 °C 34554.1 hPa NW 62.6 km/h 62.6 km/h 78 % 0 mm 7.0 W/m2 BKN
08:38 -13.2 °C -15.1 °C 34544 hPa NW 53.6 km/h 53.6 km/h 79 % 0 mm 9.0 W/m2 BKN
08:43 -13.1 °C -15.1 °C 34554.1 hPa NNW 59.5 km/h 59.5 km/h 79 % 0 mm 18.0 W/m2 BKN
08:48 -13.1 °C -15 °C 34544 hPa NW 74.5 km/h 74.5 km/h 79 % 0 mm 12.0 W/m2 BKN
08:53 -13.1 °C -15 °C 34554.1 hPa NW 71.5 km/h 71.5 km/h 79 % 0 mm 23.0 W/m2 BKN
08:58 -13.1 °C -14.9 °C 34544 hPa NW 57 km/h 57 km/h 79 % 0 mm 23.0 W/m2 BKN
09:04 -13 °C -15 °C 34544 hPa NW 75.2 km/h 75.2 km/h 78 % 0 mm 21.0 W/m2 BKN
09:09 -13 °C -15 °C 34544 hPa NW 50.7 km/h 50.7 km/h 78 % 0 mm 23.0 W/m2 BKN
09:14 -13 °C -14.9 °C 34544 hPa NW 59.5 km/h 59.5 km/h 79 % 0 mm 25.0 W/m2 BKN
09:19 -12.9 °C -14.9 °C 34544 hPa NW 65.5 km/h 65.5 km/h 79 % 0 mm 23.0 W/m2 BKN
09:24 -12.9 °C -14.9 °C 34544 hPa NW 86.4 km/h 86.4 km/h 78 % 0 mm 76.0 W/m2 BKN
09:29 -12.8 °C -14.8 °C 34544 hPa NW 92.4 km/h 92.4 km/h 78 % 0 mm 40.0 W/m2 BKN
09:34 -12.8 °C -14.8 °C 34544 hPa NW 89.3 km/h 89.3 km/h 78 % 0 mm 42.0 W/m2 BKN
09:39 -12.8 °C -14.8 °C 34544 hPa NNW 62.6 km/h 62.6 km/h 78 % 0 mm 77.0 W/m2 BKN
09:44 -12.7 °C -14.7 °C 34544 hPa NW 80.5 km/h 80.5 km/h 78 % 0 mm 134.0 W/m2 BKN
09:49 -12.7 °C -14.7 °C 34544 hPa NW 89.3 km/h 89.3 km/h 78 % 0 mm 162.0 W/m2 BKN
09:54 -12.6 °C -14.8 °C 34544 hPa NW 86.4 km/h 86.4 km/h 77 % 0 mm 142.0 W/m2 BKN
09:59 -12.6 °C -14.7 °C 34544 hPa NW 68.6 km/h 68.6 km/h 77 % 0 mm 160.0 W/m2 SCT
10:04 -12.5 °C -14.6 °C 34544 hPa NW 89.3 km/h 89.3 km/h 77 % 0 mm 160.0 W/m2 BKN
10:09 -12.4 °C -14.6 °C 34544 hPa NW 68.6 km/h 68.6 km/h 77 % 0 mm 146.0 W/m2 BKN
10:14 -12.4 °C -14.5 °C 34544 hPa NW 56.6 km/h 56.6 km/h 77 % 0 mm 229.0 W/m2 SCT
10:19 -12.3 °C -14.4 °C 34533.8 hPa NW 71.5 km/h 71.5 km/h 77 % 0 mm 246.0 W/m2 SCT
10:24 -12.3 °C -14.5 °C 34533.8 hPa NW 65.5 km/h 65.5 km/h 76 % 0 mm 262.0 W/m2 SCT
10:29 -12.2 °C -14.6 °C 34533.8 hPa NW 71.5 km/h 71.5 km/h 75 % 0 mm 274.0 W/m2 SCT
10:34 -12.1 °C -14.4 °C 34533.8 hPa NW 68.6 km/h 68.6 km/h 75 % 0 mm 297.0 W/m2 SCT
10:39 -12.1 °C -14.4 °C 34544 hPa NW 51.8 km/h 51.8 km/h 75 % 0 mm 315.0 W/m2 FEW
10:44 -12 °C -14.3 °C 34533.8 hPa NW 68.6 km/h 68.6 km/h 75 % 0 mm 334.0 W/m2 FEW
10:49 -11.9 °C -14.3 °C 34533.8 hPa NW 57 km/h 57 km/h 75 % 0 mm 294.0 W/m2 FEW
10:54 -11.9 °C -14.4 °C 34544 hPa NNW 68.6 km/h 68.6 km/h 74 % 0 mm 364.0 W/m2 FEW
10:59 -11.9 °C -14.3 °C 34533.8 hPa NW 74.5 km/h 74.5 km/h 74 % 0 mm 424.0 W/m2 CLR
11:04 -11.7 °C -14.2 °C 34533.8 hPa NW 62.6 km/h 62.6 km/h 74 % 0 mm 461.0 W/m2 CLR
11:09 -11.8 °C -14.3 °C 34533.8 hPa NW 77.4 km/h 77.4 km/h 73 % 0 mm 364.0 W/m2 CLR
11:14 -11.7 °C -14.3 °C 34533.8 hPa NW 83.4 km/h 83.4 km/h 73 % 0 mm 352.0 W/m2 CLR
11:19 -11.6 °C -14.3 °C 34533.8 hPa NW 80.5 km/h 80.5 km/h 72 % 0 mm 301.0 W/m2 FEW
11:24 -11.6 °C -14.3 °C 34533.8 hPa NW 69.8 km/h 69.8 km/h 72 % 0 mm 380.0 W/m2 FEW
11:29 -11.6 °C -14.3 °C 34533.8 hPa NW 68.6 km/h 68.6 km/h 72 % 0 mm 390.0 W/m2 FEW
11:34 -11.5 °C -14.3 °C 34520.3 hPa NW 74.5 km/h 74.5 km/h 71 % 0 mm 401.0 W/m2 FEW
11:39 -11.4 °C -14.3 °C 34520.3 hPa NW 68.6 km/h 68.6 km/h 71 % 0 mm 392.0 W/m2 FEW
11:44 -11.3 °C -14.3 °C 34520.3 hPa NW 56.6 km/h 56.6 km/h 70 % 0 mm 427.0 W/m2 CLR
11:45 -11.3 °C -14.1 °C 34520.3 hPa NW 67.3 km/h 67.3 km/h 71 % 0 mm 427.0 W/m2 CLR
11:50 -11.3 °C -14.3 °C 34520.3 hPa NW 68.6 km/h 68.6 km/h 69 % 0 mm 427.0 W/m2 CLR
11:55 -11.2 °C -14.3 °C 34510.1 hPa NW 71.5 km/h 71.5 km/h 69 % 0 mm 427.0 W/m2 CLR
12:00 -11.2 °C -14.3 °C 34510.1 hPa NW 68.6 km/h 68.6 km/h 69 % 0 mm 427.0 W/m2 CLR
12:05 -11.2 °C -14.4 °C 34510.1 hPa NNW 77.4 km/h 77.4 km/h 68 % 0 mm 420.0 W/m2 CLR
12:10 -11.2 °C -14.3 °C 34510.1 hPa NNW 77.7 km/h 77.7 km/h 68 % 0 mm 436.0 W/m2 FEW
12:15 -11.2 °C -14.3 °C 34510.1 hPa NW 68.6 km/h 68.6 km/h 68 % 0 mm 439.0 W/m2 FEW
12:20 -11.1 °C -14.3 °C 34510.1 hPa NW 80.5 km/h 80.5 km/h 67 % 0 mm 461.0 W/m2 CLR
12:25 -10.9 °C -14.3 °C 34496.6 hPa NW 56.6 km/h 56.6 km/h 67 % 0 mm 450.0 W/m2 CLR
12:30 -10.9 °C -14.3 °C 34496.6 hPa NW 74.5 km/h 74.5 km/h 66 % 0 mm 448.0 W/m2 CLR
12:35 -10.9 °C -14.4 °C 34496.6 hPa NW 89.3 km/h 89.3 km/h 65 % 0 mm 452.0 W/m2 CLR
12:40 -10.8 °C -14.3 °C 34486.4 hPa NW 92.4 km/h 92.4 km/h 65 % 0 mm 454.0 W/m2 CLR
12:45 -10.8 °C -14.5 °C 34486.4 hPa NW 77.4 km/h 77.4 km/h 64 % 0 mm 455.0 W/m2 CLR
12:50 -10.8 °C -14.5 °C 34486.4 hPa NW 89.3 km/h 89.3 km/h 64 % 0 mm 461.0 W/m2 CLR
12:55 -10.7 °C -14.6 °C 34486.4 hPa NW 83.4 km/h 83.4 km/h 63 % 0 mm 462.0 W/m2 CLR
13:00 -10.7 °C -14.6 °C 34476.3 hPa NW 68.6 km/h 68.6 km/h 63 % 0 mm 462.0 W/m2 CLR
13:05 -10.6 °C -14.4 °C 34476.3 hPa NW 74.5 km/h 74.5 km/h 63 % 0 mm 462.0 W/m2 CLR
13:10 -10.5 °C -14.3 °C 34462.7 hPa NW 72.6 km/h 72.6 km/h 63 % 0 mm 462.0 W/m2 CLR
13:15 -10.5 °C -14.4 °C 34462.7 hPa NW 92.4 km/h 92.4 km/h 62 % 0 mm 464.0 W/m2 CLR
13:20 -10.5 °C -14.5 °C 34462.7 hPa NW 74.5 km/h 74.5 km/h 62 % 0 mm 464.0 W/m2 CLR
13:25 -10.4 °C -14.4 °C 34452.6 hPa NW 68.6 km/h 68.6 km/h 62 % 0 mm 487.0 W/m2 CLR
13:30 -10.3 °C -14.4 °C 34452.6 hPa NW 74.5 km/h 74.5 km/h 61 % 0 mm 476.0 W/m2 CLR
13:36 -10.4 °C -14.6 °C 34452.6 hPa NW 89.3 km/h 89.3 km/h 60 % 0 mm 501.0 W/m2 CLR
13:41 -10.5 °C -14.6 °C 34452.6 hPa NW 89.3 km/h 89.3 km/h 61 % 0 mm 492.0 W/m2 CLR
13:46 -10.7 °C -14.6 °C 34442.4 hPa NW 68.6 km/h 68.6 km/h 62 % 0 mm 84.0 W/m2 FEW
13:51 -10.6 °C -14.3 °C 34442.4 hPa NW 75.2 km/h 75.2 km/h 64 % 0 mm 519.0 W/m2 SCT
13:56 -10.4 °C -14.2 °C 34442.4 hPa NW 74.5 km/h 74.5 km/h 64 % 0 mm 531.0 W/m2 SCT
14:01 -10.5 °C -14.3 °C 34442.4 hPa NW 92.4 km/h 92.4 km/h 63 % 0 mm 127.0 W/m2 CLR
14:06 -10.8 °C -14.5 °C 34442.4 hPa NW 89.3 km/h 89.3 km/h 64 % 0 mm 76.0 W/m2 BKN
14:11 -10.8 °C -14.4 °C 34442.4 hPa NW 86.4 km/h 86.4 km/h 65 % 0 mm 86.0 W/m2 BKN
14:16 -10.7 °C -14.3 °C 34442.4 hPa NW 92.4 km/h 92.4 km/h 64 % 0 mm 475.0 W/m2 BKN
14:21 -10.4 °C -14.2 °C 34428.8 hPa NW 62.6 km/h 62.6 km/h 64 % 0 mm 527.0 W/m2 CLR
14:26 -10.5 °C -14.3 °C 34428.8 hPa NW 80.5 km/h 81.3 km/h 63 % 0 mm 77.0 W/m2 CLR
14:31 -10.8 °C -14.4 °C 34428.8 hPa NW 77.4 km/h 77.4 km/h 65 % 0 mm 79.0 W/m2 BKN
14:36 -10.9 °C -14.5 °C 34428.8 hPa NW 92.4 km/h 92.4 km/h 65 % 0 mm 83.0 W/m2 BKN
14:41 -11.1 °C -14.5 °C 34442.4 hPa NW 86.4 km/h 86.4 km/h 66 % 0 mm 79.0 W/m2 BKN
14:46 -11.1 °C -14.5 °C 34442.4 hPa NW 104.3 km/h 104.3 km/h 66 % 0 mm 183.0 W/m2 BKN
14:51 -11.1 °C -14.5 °C 34428.8 hPa NW 89.3 km/h 89.3 km/h 66 % 0 mm 79.0 W/m2 BKN
14:56 -10.9 °C -14.5 °C 34428.8 hPa NW 107.2 km/h 107.2 km/h 65 % 0 mm 392.0 W/m2 BKN
15:01 -10.9 °C -14.5 °C 34428.8 hPa NW 89.3 km/h 89.3 km/h 65 % 0 mm 77.0 W/m2 SCT
15:06 -11.1 °C -14.5 °C 34428.8 hPa NW 75.2 km/h 75.2 km/h 66 % 0 mm 69.0 W/m2 SCT
15:11 -11 °C -14.6 °C 34418.7 hPa NW 56.6 km/h 56.6 km/h 65 % 0 mm 79.0 W/m2 BKN
15:16 -10.9 °C -14.4 °C 34418.7 hPa NW 83.4 km/h 83.4 km/h 65 % 0 mm 360.0 W/m2 SCT
15:21 -10.8 °C -14.4 °C 34428.8 hPa NW 80.3 km/h 80.3 km/h 64 % 0 mm 338.0 W/m2 CLR
15:26 -10.7 °C -14.7 °C 34418.7 hPa NW 92.4 km/h 92.4 km/h 62 % 0 mm 327.0 W/m2 CLR
15:31 -10.6 °C -14.6 °C 34418.7 hPa NW 90.6 km/h 90.6 km/h 62 % 0 mm 320.0 W/m2 CLR
15:36 -10.7 °C -14.6 °C 34428.8 hPa NW 86.4 km/h 86.4 km/h 62 % 0 mm 309.0 W/m2 CLR
15:41 -10.8 °C -14.7 °C 34418.7 hPa NW 89.3 km/h 89.3 km/h 62 % 0 mm 301.0 W/m2 CLR
15:46 -10.7 °C -14.8 °C 34428.8 hPa NW 92.4 km/h 92.4 km/h 61 % 0 mm 287.0 W/m2 CLR
15:51 -10.8 °C -14.8 °C 34428.8 hPa NW 107.2 km/h 107.2 km/h 61 % 0 mm 276.0 W/m2 CLR
15:56 -10.8 °C -14.8 °C 34418.7 hPa NW 83.4 km/h 83.4 km/h 62 % 0 mm 265.0 W/m2 CLR
16:01 -10.8 °C -14.8 °C 34428.8 hPa NNW 110.2 km/h 110.2 km/h 61 % 0 mm 250.0 W/m2 CLR
16:06 -10.8 °C -14.8 °C 34428.8 hPa NW 74.5 km/h 74.5 km/h 62 % 0 mm 236.0 W/m2 CLR
16:11 -10.8 °C -14.8 °C 34418.7 hPa NNW 98.3 km/h 98.3 km/h 62 % 0 mm 221.0 W/m2 CLR
16:16 -10.8 °C -14.6 °C 34428.8 hPa NNW 68.6 km/h 68.6 km/h 63 % 0 mm 207.0 W/m2 CLR
16:21 -10.8 °C -14.8 °C 34428.8 hPa NNW 104.3 km/h 104.3 km/h 62 % 0 mm 195.0 W/m2 CLR
16:26 -10.9 °C -14.7 °C 34428.8 hPa NNW 88 km/h 88 km/h 63 % 0 mm 178.0 W/m2 CLR
16:31 -10.9 °C -14.7 °C 34418.7 hPa NW 89.3 km/h 89.3 km/h 63 % 0 mm 163.0 W/m2 CLR
16:36 -11 °C -14.8 °C 34418.7 hPa NW 95.3 km/h 95.3 km/h 63 % 0 mm 149.0 W/m2 CLR
16:41 -11.1 °C -14.7 °C 34418.7 hPa NW 107.2 km/h 107.2 km/h 64 % 0 mm 135.0 W/m2 CLR
16:46 -11.1 °C -14.6 °C 34418.7 hPa NW 95.3 km/h 95.3 km/h 65 % 0 mm 121.0 W/m2 CLR
16:51 -11.1 °C -14.7 °C 34418.7 hPa NW 86.4 km/h 86.4 km/h 65 % 0 mm 105.0 W/m2 CLR
16:56 -11.2 °C -14.7 °C 34418.7 hPa NW 95.3 km/h 95.3 km/h 65 % 0 mm 93.0 W/m2 CLR
17:02 -11.2 °C -14.8 °C 34428.8 hPa NW 92.4 km/h 92.4 km/h 65 % 0 mm 74.0 W/m2 CLR
17:07 -11.3 °C -14.8 °C 34418.7 hPa NW 83.4 km/h 83.4 km/h 65 % 0 mm 53.0 W/m2 CLR
17:08 -11.3 °C -14.8 °C 34428.8 hPa NW 83.4 km/h 83.4 km/h 65 % 0 mm 46.0 W/m2 CLR
17:14 -11.3 °C -14.8 °C 34418.7 hPa NW 95.3 km/h 95.3 km/h 65 % 0 mm 40.0 W/m2
17:19 -11.3 °C -14.8 °C 34418.7 hPa NW 83.4 km/h 83.4 km/h 66 % 0 mm 32.0 W/m2 OVC
17:24 -11.4 °C -14.8 °C 34418.7 hPa NW 89.3 km/h 89.3 km/h 66 % 0 mm 26.0 W/m2 OVC
17:31 -11.5 °C -14.9 °C 34418.7 hPa NW 101.2 km/h 101.2 km/h 66 % 0 mm 18.0 W/m2 OVC
17:33 -11.5 °C -14.9 °C 34418.7 hPa NW 71.5 km/h 71.5 km/h 66 % 0 mm 14.0 W/m2
17:39 -11.6 °C -14.9 °C 34418.7 hPa NW 80.5 km/h 80.5 km/h 67 % 0 mm 11.0 W/m2 OVC
17:44 -11.6 °C -14.9 °C 34418.7 hPa NW 71.5 km/h 71.5 km/h 67 % 0 mm 9.0 W/m2
17:48 -11.7 °C -14.8 °C 34418.7 hPa NW 74.5 km/h 74.5 km/h 68 % 0 mm 9.0 W/m2 OVC
17:49 -11.7 °C -14.9 °C 34418.7 hPa NW 77.4 km/h 77.4 km/h 68 % 0 mm 7.0 W/m2 OVC
17:54 -11.8 °C -14.9 °C 34428.8 hPa NW 110.2 km/h 110.2 km/h 68 % 0 mm 5.0 W/m2
17:55 -11.8 °C -14.9 °C 34428.8 hPa NW 95.3 km/h 95.3 km/h 68 % 0 mm 5.0 W/m2
17:59 -11.8 °C -14.9 °C 34418.7 hPa NW 77.4 km/h 77.4 km/h 68 % 0 mm 0.0 W/m2 CLR
18:12 -11.9 °C -15.1 °C 34418.7 hPa NW 101.2 km/h 101.2 km/h 68 % 0 mm 0.0 W/m2 CLR
18:13 -11.9 °C -15.1 °C 34418.7 hPa NW 101.2 km/h 101.2 km/h 68 % 0 mm 0.0 W/m2 CLR
18:16 -11.9 °C -15.1 °C 34418.7 hPa NW 65.5 km/h 65.5 km/h 68 % 0 mm 0.0 W/m2 CLR
18:23 -11.9 °C -15.1 °C 34428.8 hPa NNW 92.4 km/h 92.4 km/h 68 % 0 mm 0.0 W/m2 CLR
18:29 -12 °C -15.1 °C 34428.8 hPa NNW 80.5 km/h 80.5 km/h 68 % 0 mm 0.0 W/m2 CLR
18:32 -12 °C -15.2 °C 34428.8 hPa NW 89.3 km/h 89.3 km/h 68 % 0 mm 0.0 W/m2
18:33 -12 °C -15.2 °C 34428.8 hPa NW 89.3 km/h 89.3 km/h 68 % 0 mm 0.0 W/m2
18:40 -12.1 °C -15.2 °C 34428.8 hPa NNW 77.7 km/h 77.7 km/h 68 % 0 mm 0.0 W/m2
18:41 -12.1 °C -15.2 °C 34428.8 hPa NNW 89.3 km/h 89.3 km/h 68 % 0 mm 0.0 W/m2
18:45 -12.1 °C -15.1 °C 34428.8 hPa NNW 74.5 km/h 74.5 km/h 69 % 0 mm 0.0 W/m2 CLR
18:52 -12.2 °C -15.2 °C 34428.8 hPa NW 92.4 km/h 92.4 km/h 69 % 0 mm 0.0 W/m2 CLR
18:54 -12.2 °C -15.2 °C 34428.8 hPa NW 77.4 km/h 77.4 km/h 69 % 0 mm 0.0 W/m2 CLR
18:56 -12.2 °C -15.2 °C 34428.8 hPa NW 89.3 km/h 89.3 km/h 69 % 0 mm 0.0 W/m2 CLR
18:57 -12.2 °C -15.2 °C 34428.8 hPa NW 74.5 km/h 74.5 km/h 69 % 0 mm 0.0 W/m2 CLR
19:01 -12.2 °C -15.2 °C 34428.8 hPa NW 68.6 km/h 68.6 km/h 69 % 0 mm 0.0 W/m2 CLR
19:08 -12.3 °C -15.3 °C 34428.8 hPa NW 83.4 km/h 83.4 km/h 69 % 0 mm 0.0 W/m2 CLR
19:16 -12.3 °C -15.2 °C 34442.4 hPa NW 53.6 km/h 53.6 km/h 70 % 0 mm 0.0 W/m2 CLR
19:25 -12.4 °C -15.1 °C 34442.4 hPa NW 74.5 km/h 74.5 km/h 72 % 0 mm 0.0 W/m2 CLR
19:28 -12.4 °C -15.1 °C 34428.8 hPa NNW 89.3 km/h 89.3 km/h 72 % 0 mm 0.0 W/m2
19:29 -12.4 °C -15.1 °C 34442.4 hPa NW 89.3 km/h 89.3 km/h 72 % 0 mm 0.0 W/m2
19:31 -12.4 °C -15.1 °C 34428.8 hPa NNW 68.6 km/h 68.6 km/h 72 % 0 mm 0.0 W/m2
19:46 -12.4 °C -15.1 °C 34428.8 hPa NW 59.5 km/h 59.5 km/h 72 % 0 mm 0.0 W/m2 CLR
19:47 -12.4 °C -15.1 °C 34442.4 hPa NW 88 km/h 88 km/h 72 % 0 mm 0.0 W/m2 CLR
19:53 -12.4 °C -15.1 °C 34442.4 hPa NW 80.5 km/h 80.5 km/h 72 % 0 mm 0.0 W/m2 CLR
19:58 -12.5 °C -15.1 °C 34442.4 hPa NW 86.4 km/h 86.4 km/h 73 % 0 mm 0.0 W/m2 CLR
20:07 -12.6 °C -14.9 °C 34442.4 hPa NW 83.4 km/h 83.4 km/h 74 % 0 mm 0.0 W/m2 CLR
20:09 -12.6 °C -15 °C 34442.4 hPa NW 83.4 km/h 83.4 km/h 74 % 0 mm 0.0 W/m2 CLR
20:11 -12.6 °C -15 °C 34442.4 hPa NW 89.3 km/h 89.3 km/h 74 % 0 mm 0.0 W/m2 CLR
20:27 -12.6 °C -15.1 °C 34442.4 hPa NNW 83.4 km/h 83.4 km/h 74 % 0 mm 0.0 W/m2 CLR
20:32 -12.6 °C -15.1 °C 34442.4 hPa NW 65.5 km/h 65.5 km/h 74 % 0 mm 0.0 W/m2 CLR
20:40 -12.7 °C -15 °C 34428.8 hPa NNW 68.6 km/h 68.6 km/h 75 % 0 mm 0.0 W/m2 CLR
21:05 -12.7 °C -15.2 °C 34442.4 hPa NNW 68.6 km/h 68.6 km/h 74 % 0 mm 0.0 W/m2 CLR
21:08 -12.7 °C -15.2 °C 34442.4 hPa NNW 77.4 km/h 77.4 km/h 74 % 0 mm 0.0 W/m2 CLR
21:11 -12.8 °C -15.2 °C 34428.8 hPa NNW 88 km/h 88 km/h 74 % 0 mm 0.0 W/m2 CLR
21:15 -12.8 °C -15.2 °C 34428.8 hPa NNW 77.4 km/h 77.4 km/h 74 % 0 mm 0.0 W/m2 CLR
21:22 -12.8 °C -15.2 °C 34428.8 hPa NNW 68.6 km/h 68.6 km/h 74 % 0 mm 0.0 W/m2 CLR
21:24 -12.8 °C -15.3 °C 34428.8 hPa NNW 89.3 km/h 89.3 km/h 74 % 0 mm 0.0 W/m2 CLR
21:26 -12.8 °C -15.3 °C 34428.8 hPa NNW 68.6 km/h 68.6 km/h 74 % 0 mm 0.0 W/m2 CLR
21:27 -12.8 °C -15.3 °C 34442.4 hPa NNW 77.4 km/h 77.4 km/h 74 % 0 mm 0.0 W/m2 CLR
21:32 -12.9 °C -15.3 °C 34428.8 hPa NNW 83.4 km/h 83.4 km/h 74 % 0 mm 0.0 W/m2 CLR
21:33 -12.9 °C -15.3 °C 34428.8 hPa NNW 83.4 km/h 83.4 km/h 74 % 0 mm 0.0 W/m2 CLR
21:48 -12.9 °C -15.4 °C 34442.4 hPa NNW 83.4 km/h 83.4 km/h 73 % 0 mm 0.0 W/m2 CLR
21:54 -12.9 °C -15.4 °C 34442.4 hPa NNW 68.6 km/h 68.6 km/h 73 % 0 mm 0.0 W/m2 CLR
21:56 -12.9 °C -15.4 °C 34442.4 hPa NNW 68.6 km/h 68.6 km/h 73 % 0 mm 0.0 W/m2 CLR
22:03 -12.9 °C -15.5 °C 34442.4 hPa NNW 53.6 km/h 53.6 km/h 73 % 0 mm 0.0 W/m2 CLR
22:05 -12.9 °C -15.5 °C 34442.4 hPa NNW 62.1 km/h 62.1 km/h 73 % 0 mm 0.0 W/m2 CLR
22:11 -13 °C -15.5 °C 34442.4 hPa NNW 50.7 km/h 52.8 km/h 73 % 0 mm 0.0 W/m2 CLR
22:16 -13 °C -15.5 °C 34442.4 hPa NNW 74.5 km/h 74.5 km/h 73 % 0 mm 0.0 W/m2 CLR
22:18 -12.9 °C -15.4 °C 34442.4 hPa NW 65.5 km/h 65.5 km/h 73 % 0 mm 0.0 W/m2 CLR
22:20 -12.9 °C -15.4 °C 34442.4 hPa NW 68.6 km/h 68.6 km/h 73 % 0 mm 0.0 W/m2 CLR
22:28 -13 °C -15.5 °C 34428.8 hPa NNW 74.5 km/h 74.5 km/h 73 % 0 mm 0.0 W/m2 CLR
22:29 -13 °C -15.4 °C 34428.8 hPa NW 77.4 km/h 77.4 km/h 74 % 0 mm 0.0 W/m2 CLR
22:30 -13 °C -15.4 °C 34428.8 hPa NW 80.5 km/h 80.5 km/h 74 % 0 mm 0.0 W/m2 CLR
22:32 -13 °C -15.4 °C 34428.8 hPa NW 75.2 km/h 75.2 km/h 74 % 0 mm 0.0 W/m2 CLR
22:35 -13 °C -15.4 °C 34428.8 hPa NW 67.3 km/h 67.3 km/h 74 % 0 mm 0.0 W/m2 CLR
22:37 -13.1 °C -15.5 °C 34428.8 hPa NW 77.4 km/h 77.4 km/h 74 % 0 mm 0.0 W/m2 CLR
22:40 -13.1 °C -15.4 °C 34428.8 hPa NNW 68.6 km/h 68.6 km/h 75 % 0 mm 0.0 W/m2 CLR
22:41 -13.1 °C -15.4 °C 34428.8 hPa NNW 68.6 km/h 68.6 km/h 75 % 0 mm 0.0 W/m2 CLR
22:46 -13.1 °C -15.4 °C 34428.8 hPa NW 77.7 km/h 77.7 km/h 75 % 0 mm 0.0 W/m2 CLR
22:51 -13.1 °C -15.3 °C 34442.4 hPa NNW 71.5 km/h 71.5 km/h 76 % 0 mm 0.0 W/m2 CLR
22:56 -13.1 °C -15.3 °C 34442.4 hPa NNW 69.8 km/h 69.8 km/h 76 % 0 mm 0.0 W/m2 CLR
23:01 -13.1 °C -15.3 °C 34442.4 hPa NW 62.6 km/h 62.6 km/h 76 % 0 mm 0.0 W/m2 CLR
23:06 -13.1 °C -15.2 °C 34442.4 hPa NNW 89.3 km/h 89.3 km/h 77 % 0 mm 0.0 W/m2 CLR
23:11 -13.1 °C -15.2 °C 34442.4 hPa NW 68.6 km/h 68.6 km/h 77 % 0 mm 0.0 W/m2 CLR
23:16 -13.1 °C -15.2 °C 34442.4 hPa NW 68.6 km/h 68.6 km/h 77 % 0 mm 0.0 W/m2 CLR
23:21 -13.2 °C -15.2 °C 34442.4 hPa NW 65.5 km/h 65.5 km/h 78 % 0 mm 0.0 W/m2 CLR
23:26 -13.2 °C -15.2 °C 34442.4 hPa NNW 71.5 km/h 71.5 km/h 78 % 0 mm 0.0 W/m2 CLR
23:31 -13.2 °C -15.2 °C 34442.4 hPa NNW 74.5 km/h 74.5 km/h 78 % 0 mm 0.0 W/m2 CLR
23:36 -13.2 °C -15.1 °C 34442.4 hPa NW 68.6 km/h 68.6 km/h 79 % 0 mm 0.0 W/m2 CLR
23:41 -13.2 °C -15.1 °C 34428.8 hPa NW 59.5 km/h 59.5 km/h 79 % 0 mm 0.0 W/m2 CLR
23:46 -13.2 °C -15.1 °C 34428.8 hPa NW 62.6 km/h 62.6 km/h 79 % 0 mm 0.0 W/m2 CLR
23:51 -13.2 °C -15.2 °C 34428.8 hPa NW 71.5 km/h 71.5 km/h 79 % 0 mm 0.0 W/m2 CLR
23:56 -13.2 °C -15.1 °C 34428.8 hPa NW 56.6 km/h 56.6 km/h 79 % 0 mm 0.0 W/m2 CLR
Lo Temps de Massalio
Compliments of Weather Underground - 1.25 mb